createdAt,value
2018-11-10T00:00:26.423Z,100614.78
2018-11-10T00:02:55.762Z,100607.50
2018-11-10T00:05:25.745Z,100611.39
2018-11-10T00:07:55.140Z,100612.41
2018-11-10T00:10:24.378Z,100610.72
2018-11-10T00:12:53.825Z,100608.01
2018-11-10T00:15:24.208Z,100606.66
2018-11-10T00:17:53.483Z,100599.55
2018-11-10T00:20:23.288Z,100591.41
2018-11-10T00:22:53.185Z,100588.70
2018-11-10T00:25:22.510Z,100584.12
2018-11-10T00:27:52.061Z,100583.45
2018-11-10T00:30:21.524Z,100582.43
2018-11-10T00:32:50.764Z,100577.85
2018-11-10T00:35:21.929Z,100587.85
2018-11-10T00:37:51.298Z,100582.77
2018-11-10T00:40:20.614Z,100579.72
2018-11-10T00:42:51.392Z,100577.85
2018-11-10T00:45:21.265Z,100581.59
2018-11-10T00:47:50.560Z,100579.72
2018-11-10T00:50:19.992Z,100578.55
2018-11-10T00:52:49.354Z,100579.89
2018-11-10T00:55:19.611Z,100581.25
2018-11-10T00:57:50.238Z,100569.39
2018-11-10T01:00:19.639Z,100569.39
2018-11-10T01:02:48.909Z,100559.89
2018-11-10T01:05:18.253Z,100565.64
2018-11-10T01:07:48.269Z,100556.85
2018-11-10T01:10:17.700Z,100547.36
2018-11-10T01:12:47.253Z,100542.13
2018-11-10T01:15:16.868Z,100541.94
2018-11-10T01:17:46.493Z,100541.61
2018-11-10T01:20:15.993Z,100540.59
2018-11-10T01:22:45.320Z,100540.08
2018-11-10T01:25:14.683Z,100533.81
2018-11-10T01:27:45.322Z,100528.90
2018-11-10T01:30:15.740Z,100519.92
2018-11-10T01:32:46.330Z,100507.20
2018-11-10T01:35:16.123Z,100508.71
2018-11-10T01:37:45.381Z,100505.02
2018-11-10T01:40:15.450Z,100502.95
2018-11-10T01:42:45.174Z,100499.22
2018-11-10T01:45:15.729Z,100500.10
2018-11-10T01:47:45.835Z,100492.62
2018-11-10T01:50:15.128Z,100489.41
2018-11-10T01:52:44.489Z,100484.31
2018-11-10T01:55:13.948Z,100481.60
2018-11-10T01:57:43.688Z,100474.83
2018-11-10T02:00:15.925Z,100470.42
2018-11-10T02:02:45.829Z,100471.78
2018-11-10T02:05:15.492Z,100465.52
2018-11-10T02:07:45.269Z,100468.73
2018-11-10T02:10:14.519Z,100469.25
2018-11-10T02:12:44.042Z,100458.41
2018-11-10T02:15:15.209Z,100459.43
2018-11-10T02:17:44.694Z,100447.05
2018-11-10T02:20:15.338Z,100450.45
2018-11-10T02:22:45.024Z,100441.30
2018-11-10T02:25:14.541Z,100450.45
2018-11-10T02:27:43.926Z,100449.44
2018-11-10T02:30:13.561Z,100450.45
2018-11-10T02:32:43.023Z,100450.45
2018-11-10T02:35:13.210Z,100438.26
2018-11-10T02:37:42.416Z,100430.13
2018-11-10T02:40:14.898Z,100431.15
2018-11-10T02:42:44.967Z,100436.57
2018-11-10T02:45:18.696Z,100432.50
2018-11-10T02:47:47.985Z,100436.06
2018-11-10T02:50:17.232Z,100436.06
2018-11-10T02:52:46.726Z,100425.73
2018-11-10T02:55:15.988Z,100430.30
2018-11-10T02:57:45.498Z,100425.39
2018-11-10T03:00:15.145Z,100432.17
2018-11-10T03:02:44.524Z,100428.44
2018-11-10T03:05:13.761Z,100434.19
2018-11-10T03:07:42.981Z,100435.22
2018-11-10T03:10:12.657Z,100421.66
2018-11-10T03:12:42.433Z,100414.55
2018-11-10T03:15:12.592Z,100409.13
2018-11-10T03:17:41.844Z,100405.40
2018-11-10T03:20:13.396Z,100402.69
2018-11-10T03:22:43.051Z,100389.83
2018-11-10T03:25:12.290Z,100388.47
2018-11-10T03:27:41.773Z,100389.13
2018-11-10T03:30:11.116Z,100391.19
2018-11-10T03:32:40.301Z,100388.47
2018-11-10T03:35:10.313Z,100380.16
2018-11-10T03:37:39.976Z,100374.73
2018-11-10T03:40:10.549Z,100373.05
2018-11-10T03:42:40.359Z,100375.44
2018-11-10T03:45:10.853Z,100376.28
2018-11-10T03:47:40.378Z,100374.73
2018-11-10T03:50:10.618Z,100376.61
2018-11-10T03:52:39.825Z,100373.89
2018-11-10T03:55:09.860Z,100367.12
2018-11-10T03:57:39.178Z,100365.44
2018-11-10T04:00:13.100Z,100363.05
2018-11-10T04:02:43.838Z,100365.77
2018-11-10T04:05:13.541Z,100364.92
2018-11-10T04:07:44.550Z,100362.72
2018-11-10T04:10:14.299Z,100353.56
2018-11-10T04:12:43.577Z,100354.59
2018-11-10T04:15:12.832Z,100352.72
2018-11-10T04:17:42.829Z,100359.50
2018-11-10T04:20:12.081Z,100355.62
2018-11-10T04:22:41.497Z,100355.95
2018-11-10T04:25:11.636Z,100352.58
2018-11-10T04:27:41.018Z,100346.13
2018-11-10T04:30:11.003Z,100352.91
2018-11-10T04:32:40.315Z,100347.48
2018-11-10T04:35:09.514Z,100339.68
2018-11-10T04:37:38.779Z,100335.28
2018-11-10T04:40:09.032Z,100331.22
2018-11-10T04:42:38.285Z,100323.09
2018-11-10T04:45:08.910Z,100320.38
2018-11-10T04:47:38.186Z,100321.41
2018-11-10T04:50:09.312Z,100318.69
2018-11-10T04:52:38.526Z,100315.47
2018-11-10T04:55:08.652Z,100309.20
2018-11-10T04:57:38.482Z,100306.83
2018-11-10T05:00:11.805Z,100299.53
2018-11-10T05:02:41.558Z,100285.66
2018-11-10T05:05:10.979Z,100286.17
2018-11-10T05:07:41.826Z,100291.27
2018-11-10T05:10:11.918Z,100288.55
2018-11-10T05:12:41.256Z,100282.61
2018-11-10T05:15:13.400Z,100281.41
2018-11-10T05:17:43.371Z,100284.48
2018-11-10T05:20:12.576Z,100273.64
2018-11-10T05:22:43.263Z,100265.15
2018-11-10T05:25:12.605Z,100256.03
2018-11-10T05:27:41.867Z,100257.86
2018-11-10T05:30:11.762Z,100259.73
2018-11-10T05:32:41.179Z,100257.02
2018-11-10T05:35:10.563Z,100258.73
2018-11-10T05:37:39.809Z,100264.16
2018-11-10T05:40:10.234Z,100265.15
2018-11-10T05:42:39.837Z,100266.87
2018-11-10T05:45:11.033Z,100258.73
2018-11-10T05:47:40.249Z,100253.31
2018-11-10T05:50:09.949Z,100248.05
2018-11-10T05:52:40.081Z,100251.60
2018-11-10T05:55:09.525Z,100254.31
2018-11-10T05:57:39.489Z,100240.76
2018-11-10T06:00:10.793Z,100238.56
2018-11-10T06:02:40.069Z,100239.92
2018-11-10T06:05:10.126Z,100236.69
2018-11-10T06:07:39.477Z,100234.17
2018-11-10T06:10:10.336Z,100239.08
2018-11-10T06:12:39.329Z,100238.56
2018-11-10T06:15:10.129Z,100233.98
2018-11-10T06:17:39.757Z,100239.08
2018-11-10T06:20:10.950Z,100237.20
2018-11-10T06:22:40.176Z,100236.18
2018-11-10T06:25:10.296Z,100237.53
2018-11-10T06:27:40.133Z,100242.95
2018-11-10T06:30:10.717Z,100236.36
2018-11-10T06:32:40.209Z,100232.30
2018-11-10T06:35:11.301Z,100233.84
2018-11-10T06:37:41.249Z,100243.14
2018-11-10T06:40:12.189Z,100239.08
2018-11-10T06:42:42.102Z,100245.52
2018-11-10T06:45:11.301Z,100233.66
2018-11-10T06:47:40.809Z,100230.29
2018-11-10T06:50:11.130Z,100227.39
2018-11-10T06:52:40.440Z,100230.94
2018-11-10T06:55:10.833Z,100225.71
2018-11-10T06:57:40.281Z,100236.03
2018-11-10T07:00:11.706Z,100233.00
2018-11-10T07:02:41.340Z,100242.30
2018-11-10T07:05:11.472Z,100249.91
2018-11-10T07:07:41.104Z,100258.56
2018-11-10T07:10:10.913Z,100261.78
2018-11-10T07:12:40.260Z,100260.43
2018-11-10T07:15:09.664Z,100262.81
2018-11-10T07:17:39.061Z,100258.56
2018-11-10T07:20:08.926Z,100263.66
2018-11-10T07:22:38.177Z,100272.30
2018-11-10T07:25:07.896Z,100270.94
2018-11-10T07:27:38.162Z,100259.27
2018-11-10T07:30:09.972Z,100250.94
2018-11-10T07:32:39.393Z,100254.68
2018-11-10T07:35:09.702Z,100249.08
2018-11-10T07:37:39.519Z,100251.97
2018-11-10T07:40:10.586Z,100253.33
2018-11-10T07:42:39.925Z,100233.52
2018-11-10T07:45:11.295Z,100223.19
2018-11-10T07:47:40.831Z,100215.05
2018-11-10T07:50:10.747Z,100202.86
2018-11-10T07:52:41.429Z,100195.89
2018-11-10T07:55:12.192Z,100192.34
2018-11-10T07:57:41.441Z,100191.50
2018-11-10T08:00:15.606Z,100183.37
2018-11-10T08:02:44.929Z,100185.24
2018-11-10T08:05:14.689Z,100184.22
2018-11-10T08:07:44.591Z,100183.89
2018-11-10T08:10:14.898Z,100186.59
2018-11-10T08:12:44.417Z,100191.17
2018-11-10T08:15:15.257Z,100190.66
2018-11-10T08:17:44.747Z,100186.92
2018-11-10T08:20:14.585Z,100203.19
2018-11-10T08:22:44.808Z,100199.13
2018-11-10T08:25:15.040Z,100199.45
2018-11-10T08:27:46.426Z,100196.73
2018-11-10T08:30:16.458Z,100188.28
2018-11-10T08:32:46.532Z,100173.38
2018-11-10T08:35:16.220Z,100183.19
2018-11-10T08:37:45.409Z,100175.76
2018-11-10T08:40:15.810Z,100180.15
2018-11-10T08:42:45.237Z,100177.62
2018-11-10T08:45:15.342Z,100179.83
2018-11-10T08:47:45.069Z,100161.88
2018-11-10T08:50:15.602Z,100167.30
2018-11-10T08:52:44.817Z,100166.45
2018-11-10T08:55:14.505Z,100164.59
2018-11-10T08:57:47.537Z,100165.95
2018-11-10T09:00:16.867Z,100154.59
2018-11-10T09:05:19.239Z,100167.30
2018-11-10T09:07:48.523Z,100165.43
2018-11-10T09:10:17.701Z,100157.48
2018-11-10T09:12:47.103Z,100163.56
2018-11-10T09:15:16.893Z,100166.65
2018-11-10T09:17:46.472Z,100174.08
2018-11-10T09:20:16.977Z,100170.52
2018-11-10T09:22:46.368Z,100186.27
2018-11-10T09:25:16.952Z,100187.62
2018-11-10T09:27:46.358Z,100176.45
2018-11-10T09:30:16.621Z,100179.17
2018-11-10T09:32:46.001Z,100184.59
2018-11-10T09:35:16.570Z,100173.56
2018-11-10T09:37:45.932Z,100174.77
2018-11-10T09:40:16.205Z,100179.50
2018-11-10T09:42:46.238Z,100184.91
2018-11-10T09:45:16.351Z,100196.78
2018-11-10T09:47:45.645Z,100193.05
2018-11-10T09:50:18.563Z,100190.01
2018-11-10T09:52:47.832Z,100190.01
2018-11-10T09:55:17.534Z,100184.08
2018-11-10T09:57:47.026Z,100188.98
2018-11-10T10:00:22.038Z,100192.72
2018-11-10T10:02:52.112Z,100182.91
2018-11-10T10:05:21.283Z,100187.30
2018-11-10T10:07:50.625Z,100184.91
2018-11-10T10:10:20.070Z,100176.78
2018-11-10T10:12:49.282Z,100180.52
2018-11-10T10:15:19.166Z,100184.59
2018-11-10T10:17:48.585Z,100197.44
2018-11-10T10:20:19.861Z,100199.31
2018-11-10T10:22:49.910Z,100193.56
2018-11-10T10:25:19.692Z,100183.56
2018-11-10T10:27:49.825Z,100188.98
2018-11-10T10:30:20.653Z,100187.95
2018-11-10T10:32:50.051Z,100172.53
2018-11-10T10:35:19.661Z,100171.69
2018-11-10T10:37:50.290Z,100172.72
2018-11-10T10:40:19.711Z,100166.27
2018-11-10T10:42:49.430Z,100170.34
2018-11-10T10:45:20.396Z,100170.01
2018-11-10T10:47:51.629Z,100162.72
2018-11-10T10:50:22.856Z,100164.59
2018-11-10T10:52:52.589Z,100168.33
2018-11-10T10:55:22.588Z,100157.81
2018-11-10T10:57:52.216Z,100163.89
2018-11-10T11:00:27.860Z,100159.82
2018-11-10T11:03:03.515Z,100158.47
2018-11-10T11:05:39.820Z,100152.53
2018-11-10T11:08:09.605Z,100143.23
2018-11-10T11:10:39.243Z,100133.75
2018-11-10T11:13:09.959Z,100140.85
2018-11-10T11:15:39.551Z,100152.53
2018-11-10T11:19:35.270Z,100147.95
2018-11-10T11:22:05.316Z,100131.37
2018-11-10T11:24:35.086Z,100144.59
2018-11-10T11:27:11.866Z,100135.43
2018-11-10T11:29:48.143Z,100128.98
2018-11-10T11:32:17.962Z,100134.73
2018-11-10T11:34:47.609Z,100127.95
2018-11-10T11:37:17.924Z,100136.41
2018-11-10T11:39:48.635Z,100138.61
2018-11-10T11:42:18.566Z,100140.32
2018-11-10T11:44:48.644Z,100135.89
2018-11-10T11:47:18.641Z,100138.45
2018-11-10T11:49:48.215Z,100139.48
2018-11-10T11:52:17.825Z,100140.65
2018-11-10T11:54:47.428Z,100139.30
2018-11-10T11:57:17.262Z,100133.36
2018-11-10T11:59:47.619Z,100138.45
2018-11-10T12:02:17.807Z,100144.20
2018-11-10T12:04:47.496Z,100138.78
2018-11-10T12:07:16.942Z,100135.04
2018-11-10T12:09:46.344Z,100129.81
2018-11-10T12:12:15.702Z,100129.62
2018-11-10T12:14:46.765Z,100130.97
2018-11-10T12:17:16.061Z,100128.27
2018-11-10T12:19:45.305Z,100129.99
2018-11-10T12:22:15.511Z,100133.88
2018-11-10T12:24:45.629Z,100129.62
2018-11-10T12:27:14.968Z,100136.39
2018-11-10T12:29:45.148Z,100133.68
2018-11-10T12:32:14.635Z,100144.85
2018-11-10T12:34:43.857Z,100149.95
2018-11-10T12:37:13.113Z,100152.98
2018-11-10T12:39:42.517Z,100149.95
2018-11-10T12:42:11.836Z,100151.30
2018-11-10T12:44:43.230Z,100151.30
2018-11-10T12:47:23.816Z,100141.30
2018-11-10T12:49:54.426Z,100147.23
2018-11-10T12:52:24.010Z,100149.95
2018-11-10T12:54:53.877Z,100147.56
2018-11-10T12:57:23.675Z,100141.30
2018-11-10T12:59:53.753Z,100139.11
2018-11-10T13:02:23.285Z,100133.68
2018-11-10T13:04:52.827Z,100133.68
2018-11-10T13:07:22.761Z,100132.33
2018-11-10T13:09:52.466Z,100136.39
2018-11-10T13:29:49.863Z,100139.56
2018-11-10T13:32:19.456Z,100141.93
2018-11-10T13:34:49.121Z,100132.07
2018-11-10T13:37:18.521Z,100135.43
2018-11-10T13:39:47.988Z,100133.56
2018-11-10T13:42:17.188Z,100138.80
2018-11-10T13:44:48.004Z,100131.18
2018-11-10T13:47:17.198Z,100137.77
2018-11-10T13:49:46.425Z,100138.80
2018-11-10T13:52:16.204Z,100137.25
2018-11-10T13:54:45.380Z,100138.61
2018-11-10T13:57:14.598Z,100137.25
2018-11-10T13:59:44.461Z,100140.84
2018-11-10T14:02:13.865Z,100131.83
2018-11-10T14:04:43.102Z,100132.34
2018-11-10T14:07:12.614Z,100138.61
2018-11-10T14:09:41.946Z,100142.19
2018-11-10T14:12:11.263Z,100136.77
2018-11-10T14:14:40.522Z,100134.22
2018-11-10T14:17:09.773Z,100135.05
2018-11-10T14:19:39.288Z,100134.22
2018-11-10T14:22:08.985Z,100132.02
2018-11-10T14:24:39.534Z,100138.28
2018-11-10T14:27:09.031Z,100136.60
2018-11-10T14:29:38.401Z,100138.80
2018-11-10T14:32:07.914Z,100139.83
2018-11-10T14:34:37.177Z,100135.25
2018-11-10T14:37:07.943Z,100138.28
2018-11-10T14:39:37.460Z,100148.28
2018-11-10T14:42:07.662Z,100145.57
2018-11-10T14:44:37.180Z,100149.31
2018-11-10T14:47:06.539Z,100152.02
2018-11-10T14:49:35.837Z,100148.80
2018-11-10T14:52:06.058Z,100153.38
2018-11-10T14:54:35.290Z,100156.59
2018-11-10T14:57:04.521Z,100156.09
2018-11-10T14:59:33.854Z,100153.38
2018-11-10T15:02:03.091Z,100157.77
2018-11-10T15:04:32.865Z,100143.38
2018-11-10T15:07:02.045Z,100156.09
2018-11-10T15:09:31.286Z,100158.28
2018-11-10T15:12:00.917Z,100155.05
2018-11-10T15:14:29.968Z,100158.80
2018-11-10T15:16:59.188Z,100163.89
2018-11-10T15:19:28.831Z,100171.83
2018-11-10T15:21:58.030Z,100172.86
2018-11-10T15:24:27.261Z,100167.95
2018-11-10T15:26:56.583Z,100173.38
2018-11-10T15:29:25.838Z,100172.02
2018-11-10T15:31:55.896Z,100170.66
2018-11-10T15:34:25.325Z,100166.08
2018-11-10T15:36:54.556Z,100165.25
2018-11-10T15:39:23.868Z,100172.02
2018-11-10T15:41:56.333Z,100167.11
2018-11-10T15:44:25.561Z,100174.91
2018-11-10T15:46:54.914Z,100166.78
2018-11-10T15:49:24.330Z,100176.09
2018-11-10T15:51:53.520Z,100171.69
2018-11-10T15:54:23.147Z,100179.83
2018-11-10T15:56:52.533Z,100178.47
2018-11-10T15:59:21.902Z,100179.83
2018-11-10T16:01:51.200Z,100173.05
2018-11-10T16:04:20.473Z,100176.27
2018-11-10T16:06:49.786Z,100178.14
2018-11-10T16:09:19.279Z,100176.78
2018-11-10T16:11:48.521Z,100177.11
2018-11-10T16:14:19.379Z,100182.53
2018-11-10T16:16:48.975Z,100178.47
2018-11-10T16:19:18.174Z,100176.78
2018-11-10T16:21:47.560Z,100183.05
2018-11-10T16:24:17.065Z,100180.85
2018-11-10T16:26:46.333Z,100180.66
2018-11-10T16:29:15.627Z,100175.76
2018-11-10T16:31:44.987Z,100177.62
2018-11-10T16:34:14.332Z,100176.78
2018-11-10T16:36:43.653Z,100171.88
2018-11-10T16:39:13.197Z,100177.81
2018-11-10T16:41:42.609Z,100179.17
2018-11-10T16:44:13.915Z,100178.33
2018-11-10T16:46:43.245Z,100183.23
2018-11-10T16:49:12.448Z,100183.23
2018-11-10T16:51:42.529Z,100180.52
2018-11-10T16:54:11.870Z,100179.50
2018-11-10T16:56:41.165Z,100184.91
2018-11-10T16:59:10.741Z,100186.27
2018-11-10T17:01:41.537Z,100191.36
2018-11-10T17:04:12.718Z,100188.66
2018-11-10T17:06:42.054Z,100187.30
2018-11-10T17:09:13.342Z,100192.53
2018-11-10T17:11:44.851Z,100184.59
2018-11-10T17:14:14.740Z,100183.23
2018-11-10T17:16:43.945Z,100194.91
2018-11-10T17:19:14.725Z,100185.94
2018-11-10T17:21:44.415Z,100180.20
2018-11-10T17:24:13.816Z,100191.69
2018-11-10T17:27:47.521Z,100184.59
2018-11-10T17:30:19.785Z,100184.96
2018-11-10T17:32:49.629Z,100182.25
2018-11-10T17:35:19.730Z,100186.64
2018-11-10T17:37:50.072Z,100181.73
2018-11-10T17:40:19.598Z,100180.20
2018-11-10T17:42:49.751Z,100182.06
2018-11-10T17:45:19.939Z,100177.48
2018-11-10T17:47:49.183Z,100175.62
2018-11-10T17:50:19.050Z,100172.39
2018-11-10T17:52:48.732Z,100163.42
2018-11-10T17:55:18.382Z,100171.36
2018-11-10T17:57:48.385Z,100173.75
2018-11-10T18:00:17.956Z,100176.45
2018-11-10T18:02:47.454Z,100174.91
2018-11-10T18:05:17.661Z,100167.81
2018-11-10T18:07:47.230Z,100170.01
2018-11-10T18:10:18.761Z,100171.88
2018-11-10T18:12:48.007Z,100171.04
2018-11-10T18:15:17.360Z,100168.33
2018-11-10T18:17:46.946Z,100170.01
2018-11-10T18:20:17.219Z,100168.66
2018-11-10T18:22:46.852Z,100171.04
2018-11-10T18:25:16.241Z,100170.20
2018-11-10T18:27:45.466Z,100170.52
2018-11-10T18:30:15.445Z,100165.62
2018-11-10T18:32:45.105Z,100169.17
2018-11-10T18:35:14.555Z,100167.30
2018-11-10T18:37:43.813Z,100169.17
2018-11-10T18:40:13.081Z,100164.59
2018-11-10T18:42:42.387Z,100154.27
2018-11-10T18:45:12.368Z,100160.20
2018-11-10T18:47:42.110Z,100159.17
2018-11-10T18:50:15.985Z,100161.04
2018-11-10T18:52:45.445Z,100155.11
2018-11-10T18:55:15.493Z,100158.52
2018-11-10T18:57:45.343Z,100153.42
2018-11-10T19:00:15.651Z,100148.66
2018-11-10T19:02:45.109Z,100150.20
2018-11-10T19:05:15.742Z,100133.09
2018-11-10T19:07:45.119Z,100137.67
2018-11-10T19:10:15.712Z,100134.12
2018-11-10T19:12:45.062Z,100132.26
2018-11-10T19:15:17.726Z,100128.52
2018-11-10T19:17:47.041Z,100133.09
2018-11-10T19:20:16.808Z,100132.26
2018-11-10T19:22:46.146Z,100120.39
2018-11-10T19:25:15.498Z,100122.26
2018-11-10T19:27:44.799Z,100127.16
2018-11-10T19:30:17.345Z,100132.77
2018-11-10T19:32:47.506Z,100142.58
2018-11-10T19:35:17.420Z,100139.88
2018-11-10T19:37:46.907Z,100142.06
2018-11-10T19:40:16.329Z,100144.45
2018-11-10T19:42:46.365Z,100143.94
2018-11-10T19:45:15.786Z,100146.65
2018-11-10T19:47:45.782Z,100154.78
2018-11-10T19:50:15.418Z,100154.27
2018-11-10T19:52:44.794Z,100154.45
2018-11-10T19:55:16.115Z,100164.59
2018-11-10T19:57:45.483Z,100166.45
2018-11-10T20:00:17.567Z,100165.62
2018-11-10T20:02:46.884Z,100163.23
2018-11-10T20:05:16.988Z,100166.45
2018-11-10T20:07:46.630Z,100152.06
2018-11-10T20:10:16.236Z,100122.26
2018-11-10T20:12:46.312Z,100122.26
2018-11-10T20:15:16.996Z,100139.88
2018-11-10T20:17:46.757Z,100144.97
2018-11-10T20:20:18.109Z,100126.33
2018-11-10T20:22:47.481Z,100132.39
2018-11-10T20:25:18.924Z,100142.91
2018-11-10T20:27:49.286Z,100135.80
2018-11-10T20:32:56.725Z,100143.94
2018-11-10T20:35:26.713Z,100141.23
2018-11-10T20:37:56.699Z,100141.88
2018-11-10T20:40:26.449Z,100136.65
2018-11-10T20:42:56.012Z,100132.07
2018-11-10T20:45:25.593Z,100135.63
2018-11-10T20:47:55.418Z,100129.69
2018-11-10T20:50:24.877Z,100137.48
2018-11-10T20:52:55.598Z,100147.30
2018-11-10T20:55:25.962Z,100144.59
2018-11-10T20:57:55.246Z,100145.30
2018-11-10T21:00:25.690Z,100143.42
2018-11-10T21:02:55.365Z,100147.81
2018-11-10T21:05:24.673Z,100144.59
2018-11-10T21:07:55.087Z,100144.97
2018-11-10T21:10:25.520Z,100146.46
2018-11-10T21:12:55.090Z,100133.09
2018-11-10T21:15:24.645Z,100140.71
2018-11-10T21:17:54.125Z,100133.94
2018-11-10T21:20:23.544Z,100142.91
2018-11-10T21:22:52.881Z,100133.94
2018-11-10T21:25:24.301Z,100135.30
2018-11-10T21:27:53.812Z,100140.20
2018-11-10T21:30:23.413Z,100135.30
2018-11-10T21:32:53.005Z,100132.26
2018-11-10T21:35:22.568Z,100128.00
2018-11-10T21:37:51.826Z,100120.91
2018-11-10T21:40:22.573Z,100123.61
2018-11-10T21:42:52.492Z,100125.30
2018-11-10T21:45:21.705Z,100124.27
2018-11-10T21:47:51.182Z,100119.55
2018-11-10T21:50:21.033Z,100119.55
2018-11-10T21:52:50.332Z,100127.16
2018-11-10T21:55:20.309Z,100118.52
2018-11-10T21:57:50.053Z,100118.52
2018-11-10T22:00:21.759Z,100117.67
2018-11-10T22:02:51.316Z,100110.39
2018-11-10T22:05:20.950Z,100109.36
2018-11-10T22:07:50.429Z,100113.42
2018-11-10T22:10:20.142Z,100109.55
2018-11-10T22:12:49.435Z,100112.59
2018-11-10T22:15:20.180Z,100113.75
2018-11-10T22:17:49.516Z,100121.55
2018-11-10T22:20:20.216Z,100119.50
2018-11-10T22:22:49.976Z,100116.46
2018-11-10T22:25:19.115Z,100118.84
2018-11-10T22:27:49.772Z,100121.88
2018-11-10T22:30:20.627Z,100117.49
2018-11-10T22:32:50.443Z,100117.16
2018-11-10T22:35:19.900Z,100121.05
2018-11-10T22:37:49.212Z,100122.91
2018-11-10T22:40:19.989Z,100120.53
2018-11-10T22:42:49.261Z,100115.11
2018-11-10T22:45:20.056Z,100108.52
2018-11-10T22:47:49.428Z,100106.98
2018-11-10T22:50:20.292Z,100105.11
2018-11-10T22:52:49.676Z,100112.72
2018-11-10T22:55:19.010Z,100108.33
2018-11-10T22:57:48.584Z,100102.07
2018-11-10T23:00:21.919Z,100100.39
2018-11-10T23:02:54.388Z,100106.65
2018-11-10T23:05:24.187Z,100105.30
2018-11-10T23:07:53.536Z,100095.81
2018-11-10T23:10:23.487Z,100101.23
2018-11-10T23:12:53.842Z,100095.30
2018-11-10T23:15:23.202Z,100106.65
2018-11-10T23:17:52.787Z,100102.59
2018-11-10T23:20:22.161Z,100109.36
2018-11-10T23:22:51.474Z,100120.20
2018-11-10T23:25:20.961Z,100111.55
2018-11-10T23:28:54.014Z,100112.06
2018-11-10T23:31:23.463Z,100107.35
2018-11-10T23:33:52.944Z,100109.41
2018-11-10T23:36:22.296Z,100109.09
2018-11-10T23:38:51.622Z,100107.02
2018-11-10T23:41:20.845Z,100101.61
2018-11-10T23:43:50.944Z,100096.19
2018-11-10T23:46:20.450Z,100094.83
2018-11-10T23:48:49.776Z,100095.02
2018-11-10T23:51:19.186Z,100103.29
2018-11-10T23:53:51.794Z,100104.64
2018-11-10T23:56:21.173Z,100101.94
2018-11-10T23:58:50.377Z,100107.35
